sensor_id;sensor_type;location;lat;lon;timestamp;temperature;humidity
31991;DHT22;18508;49.386;8.370;2024-03-02T00:00:42;5.30;99.90
31991;DHT22;18508;49.386;8.370;2024-03-02T00:03:11;5.40;99.90
31991;DHT22;18508;49.386;8.370;2024-03-02T00:05:42;5.40;99.90
31991;DHT22;18508;49.386;8.370;2024-03-02T00:08:10;5.40;99.90
31991;DHT22;18508;49.386;8.370;2024-03-02T00:10:39;5.10;99.90
31991;DHT22;18508;49.386;8.370;2024-03-02T00:13:07;5.30;99.90
31991;DHT22;18508;49.386;8.370;2024-03-02T00:15:46;5.20;99.90
31991;DHT22;18508;49.386;8.370;2024-03-02T00:18:18;5.20;99.90
31991;DHT22;18508;49.386;8.370;2024-03-02T00:20:48;5.20;99.90
31991;DHT22;18508;49.386;8.370;2024-03-02T00:23:16;5.20;99.90
31991;DHT22;18508;49.386;8.370;2024-03-02T00:25:48;5.20;99.90
31991;DHT22;18508;49.386;8.370;2024-03-02T00:28:19;5.10;99.90
31991;DHT22;18508;49.386;8.370;2024-03-02T00:30:58;5.10;99.90
31991;DHT22;18508;49.386;8.370;2024-03-02T00:33:28;5.10;99.90
31991;DHT22;18508;49.386;8.370;2024-03-02T00:35:59;5.10;99.90
31991;DHT22;18508;49.386;8.370;2024-03-02T00:38:27;5.00;99.90
31991;DHT22;18508;49.386;8.370;2024-03-02T00:40:58;4.90;99.90
31991;DHT22;18508;49.386;8.370;2024-03-02T00:43:41;4.80;99.90
31991;DHT22;18508;49.386;8.370;2024-03-02T00:46:16;4.80;99.90
31991;DHT22;18508;49.386;8.370;2024-03-02T00:48:52;4.70;99.90
31991;DHT22;18508;49.386;8.370;2024-03-02T00:51:24;4.60;99.90
31991;DHT22;18508;49.386;8.370;2024-03-02T00:53:53;4.50;99.90
31991;DHT22;18508;49.386;8.370;2024-03-02T00:56:24;4.50;99.90
31991;DHT22;18508;49.386;8.370;2024-03-02T00:58:53;4.40;99.90
31991;DHT22;18508;49.386;8.370;2024-03-02T01:01:21;4.40;99.90
31991;DHT22;18508;49.386;8.370;2024-03-02T01:03:50;4.40;99.90
31991;DHT22;18508;49.386;8.370;2024-03-02T01:06:18;4.40;99.90
31991;DHT22;18508;49.386;8.370;2024-03-02T01:08:48;4.30;99.90
31991;DHT22;18508;49.386;8.370;2024-03-02T01:11:19;4.30;99.90
31991;DHT22;18508;49.386;8.370;2024-03-02T01:13:50;4.40;99.90
31991;DHT22;18508;49.386;8.370;2024-03-02T01:16:18;4.30;99.90
31991;DHT22;18508;49.386;8.370;2024-03-02T01:18:46;4.40;99.90
31991;DHT22;18508;49.386;8.370;2024-03-02T01:21:15;4.30;99.90
31991;DHT22;18508;49.386;8.370;2024-03-02T01:23:43;4.30;99.90
31991;DHT22;18508;49.386;8.370;2024-03-02T01:26:12;4.30;99.90
31991;DHT22;18508;49.386;8.370;2024-03-02T01:28:41;4.30;99.90
31991;DHT22;18508;49.386;8.370;2024-03-02T01:31:09;4.30;99.90
31991;DHT22;18508;49.386;8.370;2024-03-02T01:33:37;4.30;99.90
31991;DHT22;18508;49.386;8.370;2024-03-02T01:36:06;4.30;99.90
31991;DHT22;18508;49.386;8.370;2024-03-02T01:38:35;4.30;99.90
31991;DHT22;18508;49.386;8.370;2024-03-02T01:41:03;4.30;99.90
31991;DHT22;18508;49.386;8.370;2024-03-02T01:43:32;4.30;99.90
31991;DHT22;18508;49.386;8.370;2024-03-02T01:46:04;4.30;99.90
31991;DHT22;18508;49.386;8.370;2024-03-02T01:48:32;4.60;99.90
31991;DHT22;18508;49.386;8.370;2024-03-02T01:51:01;4.30;99.90
31991;DHT22;18508;49.386;8.370;2024-03-02T01:53:29;4.30;99.90
31991;DHT22;18508;49.386;8.370;2024-03-02T01:55:57;4.20;99.90
31991;DHT22;18508;49.386;8.370;2024-03-02T01:58:25;4.30;99.90
31991;DHT22;18508;49.386;8.370;2024-03-02T02:00:55;4.30;99.90
31991;DHT22;18508;49.386;8.370;2024-03-02T02:03:23;4.20;99.90
31991;DHT22;18508;49.386;8.370;2024-03-02T02:05:51;4.20;99.90
31991;DHT22;18508;49.386;8.370;2024-03-02T02:08:19;4.20;99.90
31991;DHT22;18508;49.386;8.370;2024-03-02T02:10:47;4.10;99.90
31991;DHT22;18508;49.386;8.370;2024-03-02T02:13:15;4.10;99.90
31991;DHT22;18508;49.386;8.370;2024-03-02T02:15:43;4.00;99.90
31991;DHT22;18508;49.386;8.370;2024-03-02T02:18:13;4.00;99.90
31991;DHT22;18508;49.386;8.370;2024-03-02T02:20:42;4.00;99.90
31991;DHT22;18508;49.386;8.370;2024-03-02T02:23:11;4.10;99.90
31991;DHT22;18508;49.386;8.370;2024-03-02T02:25:40;4.10;99.90
31991;DHT22;18508;49.386;8.370;2024-03-02T02:28:08;4.10;99.90
31991;DHT22;18508;49.386;8.370;2024-03-02T02:30:36;4.10;99.90
31991;DHT22;18508;49.386;8.370;2024-03-02T02:33:05;4.30;99.90
31991;DHT22;18508;49.386;8.370;2024-03-02T02:35:33;4.20;99.90
31991;DHT22;18508;49.386;8.370;2024-03-02T02:38:00;4.20;99.90
31991;DHT22;18508;49.386;8.370;2024-03-02T02:40:31;4.20;99.90
31991;DHT22;18508;49.386;8.370;2024-03-02T02:42:59;4.20;99.90
31991;DHT22;18508;49.386;8.370;2024-03-02T02:45:27;4.20;99.90
31991;DHT22;18508;49.386;8.370;2024-03-02T02:47:55;4.10;99.90
31991;DHT22;18508;49.386;8.370;2024-03-02T02:50:23;4.10;99.90
31991;DHT22;18508;49.386;8.370;2024-03-02T02:52:51;4.10;99.90
31991;DHT22;18508;49.386;8.370;2024-03-02T02:55:19;4.10;99.90
31991;DHT22;18508;49.386;8.370;2024-03-02T02:57:49;4.20;99.90
31991;DHT22;18508;49.386;8.370;2024-03-02T03:00:17;4.10;99.90
31991;DHT22;18508;49.386;8.370;2024-03-02T03:02:48;4.10;99.90
31991;DHT22;18508;49.386;8.370;2024-03-02T03:05:18;4.10;99.90
31991;DHT22;18508;49.386;8.370;2024-03-02T03:07:46;4.10;99.90
31991;DHT22;18508;49.386;8.370;2024-03-02T03:10:17;4.10;99.90
31991;DHT22;18508;49.386;8.370;2024-03-02T03:12:45;4.20;99.90
31991;DHT22;18508;49.386;8.370;2024-03-02T03:15:15;4.10;99.90
31991;DHT22;18508;49.386;8.370;2024-03-02T03:17:44;4.10;99.90
31991;DHT22;18508;49.386;8.370;2024-03-02T03:20:14;4.10;99.90
31991;DHT22;18508;49.386;8.370;2024-03-02T03:22:42;4.10;99.90
31991;DHT22;18508;49.386;8.370;2024-03-02T03:25:10;4.10;99.90
31991;DHT22;18508;49.386;8.370;2024-03-02T03:27:39;4.10;99.90
31991;DHT22;18508;49.386;8.370;2024-03-02T03:30:09;4.10;99.90
31991;DHT22;18508;49.386;8.370;2024-03-02T03:32:39;4.10;99.90
31991;DHT22;18508;49.386;8.370;2024-03-02T03:35:07;4.10;99.90
31991;DHT22;18508;49.386;8.370;2024-03-02T03:37:36;4.10;99.90
31991;DHT22;18508;49.386;8.370;2024-03-02T03:40:05;4.10;99.90
31991;DHT22;18508;49.386;8.370;2024-03-02T03:42:37;4.10;99.90
31991;DHT22;18508;49.386;8.370;2024-03-02T03:45:06;4.00;99.90
31991;DHT22;18508;49.386;8.370;2024-03-02T03:47:34;4.00;99.90
31991;DHT22;18508;49.386;8.370;2024-03-02T03:50:05;3.90;99.90
31991;DHT22;18508;49.386;8.370;2024-03-02T03:52:34;3.90;99.90
31991;DHT22;18508;49.386;8.370;2024-03-02T03:55:02;3.90;99.90
31991;DHT22;18508;49.386;8.370;2024-03-02T03:57:32;3.80;99.90
31991;DHT22;18508;49.386;8.370;2024-03-02T04:00:00;3.80;99.90
31991;DHT22;18508;49.386;8.370;2024-03-02T04:02:29;3.80;99.90
31991;DHT22;18508;49.386;8.370;2024-03-02T04:04:56;3.80;99.90
31991;DHT22;18508;49.386;8.370;2024-03-02T04:07:26;3.80;99.90
31991;DHT22;18508;49.386;8.370;2024-03-02T04:09:54;3.70;99.90
31991;DHT22;18508;49.386;8.370;2024-03-02T04:12:22;3.70;99.90
31991;DHT22;18508;49.386;8.370;2024-03-02T04:14:50;3.70;99.90
31991;DHT22;18508;49.386;8.370;2024-03-02T04:17:18;3.70;99.90
31991;DHT22;18508;49.386;8.370;2024-03-02T04:19:46;3.70;99.90
31991;DHT22;18508;49.386;8.370;2024-03-02T04:22:14;3.70;99.90
31991;DHT22;18508;49.386;8.370;2024-03-02T04:24:52;3.70;99.90
31991;DHT22;18508;49.386;8.370;2024-03-02T04:27:21;3.60;99.90
31991;DHT22;18508;49.386;8.370;2024-03-02T04:29:49;3.60;99.90
31991;DHT22;18508;49.386;8.370;2024-03-02T04:32:17;3.60;99.90
31991;DHT22;18508;49.386;8.370;2024-03-02T04:34:46;3.60;99.90
31991;DHT22;18508;49.386;8.370;2024-03-02T04:37:14;3.60;99.90
31991;DHT22;18508;49.386;8.370;2024-03-02T04:39:42;3.50;99.90
31991;DHT22;18508;49.386;8.370;2024-03-02T04:42:11;3.50;99.90
31991;DHT22;18508;49.386;8.370;2024-03-02T04:44:39;3.50;99.90
31991;DHT22;18508;49.386;8.370;2024-03-02T04:47:07;3.50;99.90
31991;DHT22;18508;49.386;8.370;2024-03-02T04:49:36;3.50;99.90
31991;DHT22;18508;49.386;8.370;2024-03-02T04:52:04;3.50;99.90
31991;DHT22;18508;49.386;8.370;2024-03-02T04:54:33;3.50;99.90
31991;DHT22;18508;49.386;8.370;2024-03-02T04:57:22;3.40;99.90
31991;DHT22;18508;49.386;8.370;2024-03-02T04:59:50;3.40;99.90
31991;DHT22;18508;49.386;8.370;2024-03-02T05:02:19;3.50;99.90
31991;DHT22;18508;49.386;8.370;2024-03-02T05:04:47;3.50;99.90
31991;DHT22;18508;49.386;8.370;2024-03-02T05:07:15;3.50;99.90
31991;DHT22;18508;49.386;8.370;2024-03-02T05:09:43;3.40;99.90
31991;DHT22;18508;49.386;8.370;2024-03-02T05:12:11;3.50;99.90
31991;DHT22;18508;49.386;8.370;2024-03-02T05:15:07;3.50;99.90
31991;DHT22;18508;49.386;8.370;2024-03-02T05:17:36;3.50;99.90
31991;DHT22;18508;49.386;8.370;2024-03-02T05:20:06;3.50;99.90
31991;DHT22;18508;49.386;8.370;2024-03-02T05:22:35;3.50;99.90
31991;DHT22;18508;49.386;8.370;2024-03-02T05:25:04;3.50;99.90
31991;DHT22;18508;49.386;8.370;2024-03-02T05:27:32;3.60;99.90
31991;DHT22;18508;49.386;8.370;2024-03-02T05:30:00;3.60;99.90
31991;DHT22;18508;49.386;8.370;2024-03-02T05:32:30;3.70;99.90
31991;DHT22;18508;49.386;8.370;2024-03-02T05:34:58;3.70;99.90
31991;DHT22;18508;49.386;8.370;2024-03-02T05:37:26;3.80;99.90
31991;DHT22;18508;49.386;8.370;2024-03-02T05:39:54;3.90;99.90
31991;DHT22;18508;49.386;8.370;2024-03-02T05:42:22;4.00;99.90
31991;DHT22;18508;49.386;8.370;2024-03-02T05:44:50;4.00;99.90
31991;DHT22;18508;49.386;8.370;2024-03-02T05:47:19;4.10;99.90
31991;DHT22;18508;49.386;8.370;2024-03-02T05:49:49;4.10;99.90
31991;DHT22;18508;49.386;8.370;2024-03-02T05:52:17;4.10;99.90
31991;DHT22;18508;49.386;8.370;2024-03-02T05:54:45;4.10;99.90
31991;DHT22;18508;49.386;8.370;2024-03-02T05:57:13;4.00;99.90
31991;DHT22;18508;49.386;8.370;2024-03-02T05:59:58;4.00;99.90
31991;DHT22;18508;49.386;8.370;2024-03-02T06:02:26;4.00;99.90
31991;DHT22;18508;49.386;8.370;2024-03-02T06:04:56;4.00;99.90
31991;DHT22;18508;49.386;8.370;2024-03-02T06:07:24;4.00;99.90
31991;DHT22;18508;49.386;8.370;2024-03-02T06:09:52;4.10;99.90
31991;DHT22;18508;49.386;8.370;2024-03-02T06:12:20;4.10;99.90
31991;DHT22;18508;49.386;8.370;2024-03-02T06:14:48;4.10;99.90
31991;DHT22;18508;49.386;8.370;2024-03-02T06:17:16;4.10;99.90
31991;DHT22;18508;49.386;8.370;2024-03-02T06:19:46;4.20;99.90
31991;DHT22;18508;49.386;8.370;2024-03-02T06:22:16;4.20;99.90
31991;DHT22;18508;49.386;8.370;2024-03-02T06:24:45;4.20;99.90
31991;DHT22;18508;49.386;8.370;2024-03-02T06:27:13;4.30;99.90
31991;DHT22;18508;49.386;8.370;2024-03-02T06:29:41;4.30;99.90
31991;DHT22;18508;49.386;8.370;2024-03-02T06:32:09;4.30;99.90
31991;DHT22;18508;49.386;8.370;2024-03-02T06:34:38;4.40;99.90
31991;DHT22;18508;49.386;8.370;2024-03-02T06:37:06;4.40;99.90
31991;DHT22;18508;49.386;8.370;2024-03-02T06:39:35;4.40;99.90
31991;DHT22;18508;49.386;8.370;2024-03-02T06:42:03;4.30;99.90
31991;DHT22;18508;49.386;8.370;2024-03-02T06:44:31;4.50;99.90
31991;DHT22;18508;49.386;8.370;2024-03-02T06:47:00;4.30;99.90
31991;DHT22;18508;49.386;8.370;2024-03-02T06:49:28;4.30;99.90
31991;DHT22;18508;49.386;8.370;2024-03-02T06:51:56;4.30;99.90
31991;DHT22;18508;49.386;8.370;2024-03-02T06:54:24;4.40;99.90
31991;DHT22;18508;49.386;8.370;2024-03-02T06:56:53;4.40;99.90
31991;DHT22;18508;49.386;8.370;2024-03-02T06:59:21;4.50;99.90
31991;DHT22;18508;49.386;8.370;2024-03-02T07:01:49;4.60;99.90
31991;DHT22;18508;49.386;8.370;2024-03-02T07:04:17;4.70;99.90
31991;DHT22;18508;49.386;8.370;2024-03-02T07:06:45;4.70;99.90
31991;DHT22;18508;49.386;8.370;2024-03-02T07:09:13;4.80;99.90
31991;DHT22;18508;49.386;8.370;2024-03-02T07:11:41;4.80;99.90
31991;DHT22;18508;49.386;8.370;2024-03-02T07:14:10;4.90;99.90
31991;DHT22;18508;49.386;8.370;2024-03-02T07:16:38;4.90;99.90
31991;DHT22;18508;49.386;8.370;2024-03-02T07:19:07;5.00;99.90
31991;DHT22;18508;49.386;8.370;2024-03-02T07:21:35;5.10;99.90
31991;DHT22;18508;49.386;8.370;2024-03-02T07:24:03;5.30;99.90
31991;DHT22;18508;49.386;8.370;2024-03-02T07:26:31;5.50;99.90
31991;DHT22;18508;49.386;8.370;2024-03-02T07:29:02;5.70;99.90
31991;DHT22;18508;49.386;8.370;2024-03-02T07:31:31;5.90;99.90
31991;DHT22;18508;49.386;8.370;2024-03-02T07:33:59;6.00;99.90
31991;DHT22;18508;49.386;8.370;2024-03-02T07:36:28;6.30;99.90
31991;DHT22;18508;49.386;8.370;2024-03-02T07:38:56;6.40;99.90
31991;DHT22;18508;49.386;8.370;2024-03-02T07:41:25;6.60;99.90
31991;DHT22;18508;49.386;8.370;2024-03-02T07:43:53;6.90;99.90
31991;DHT22;18508;49.386;8.370;2024-03-02T07:46:21;7.10;99.90
31991;DHT22;18508;49.386;8.370;2024-03-02T07:48:50;7.30;99.90
31991;DHT22;18508;49.386;8.370;2024-03-02T07:51:19;7.40;99.90
31991;DHT22;18508;49.386;8.370;2024-03-02T07:53:47;7.50;99.90
31991;DHT22;18508;49.386;8.370;2024-03-02T07:56:16;7.60;99.90
31991;DHT22;18508;49.386;8.370;2024-03-02T07:58:48;7.80;99.90
31991;DHT22;18508;49.386;8.370;2024-03-02T08:01:16;7.80;99.90
31991;DHT22;18508;49.386;8.370;2024-03-02T08:03:45;7.90;99.90
31991;DHT22;18508;49.386;8.370;2024-03-02T08:06:16;7.90;99.90
31991;DHT22;18508;49.386;8.370;2024-03-02T08:08:44;7.90;99.90
31991;DHT22;18508;49.386;8.370;2024-03-02T08:11:12;7.90;99.90
31991;DHT22;18508;49.386;8.370;2024-03-02T08:13:40;8.00;99.90
31991;DHT22;18508;49.386;8.370;2024-03-02T08:16:08;8.00;99.90
31991;DHT22;18508;49.386;8.370;2024-03-02T08:18:36;8.00;99.90
31991;DHT22;18508;49.386;8.370;2024-03-02T08:21:04;8.10;99.90
31991;DHT22;18508;49.386;8.370;2024-03-02T08:23:36;8.20;99.90
31991;DHT22;18508;49.386;8.370;2024-03-02T08:26:07;8.20;99.90
31991;DHT22;18508;49.386;8.370;2024-03-02T08:28:35;8.30;99.90
31991;DHT22;18508;49.386;8.370;2024-03-02T08:31:04;8.40;99.90
31991;DHT22;18508;49.386;8.370;2024-03-02T08:33:32;8.40;99.90
31991;DHT22;18508;49.386;8.370;2024-03-02T08:36:04;8.50;99.90
31991;DHT22;18508;49.386;8.370;2024-03-02T08:38:32;8.50;99.90
31991;DHT22;18508;49.386;8.370;2024-03-02T08:41:02;8.60;99.90
31991;DHT22;18508;49.386;8.370;2024-03-02T08:43:31;8.50;1.00
31991;DHT22;18508;49.386;8.370;2024-03-02T08:45:59;8.50;99.90
31991;DHT22;18508;49.386;8.370;2024-03-02T08:48:27;8.40;23.00
31991;DHT22;18508;49.386;8.370;2024-03-02T08:50:55;8.50;1.00
31991;DHT22;18508;49.386;8.370;2024-03-02T08:53:24;8.60;99.90
31991;DHT22;18508;49.386;8.370;2024-03-02T08:55:52;8.70;1.00
31991;DHT22;18508;49.386;8.370;2024-03-02T08:58:26;8.80;1.00
31991;DHT22;18508;49.386;8.370;2024-03-02T09:00:54;8.90;99.90
31991;DHT22;18508;49.386;8.370;2024-03-02T09:03:22;9.00;1.00
31991;DHT22;18508;49.386;8.370;2024-03-02T09:05:50;9.20;87.20
31991;DHT22;18508;49.386;8.370;2024-03-02T09:08:18;9.20;67.20
31991;DHT22;18508;49.386;8.370;2024-03-02T09:10:46;9.20;1.00
31991;DHT22;18508;49.386;8.370;2024-03-02T09:13:14;9.40;99.90
31991;DHT22;18508;49.386;8.370;2024-03-02T09:15:44;9.40;1.00
31991;DHT22;18508;49.386;8.370;2024-03-02T09:18:12;9.50;1.00
31991;DHT22;18508;49.386;8.370;2024-03-02T09:20:40;9.60;99.90
31991;DHT22;18508;49.386;8.370;2024-03-02T09:23:08;9.60;1.00
31991;DHT22;18508;49.386;8.370;2024-03-02T09:25:36;9.60;1.00
31991;DHT22;18508;49.386;8.370;2024-03-02T09:28:04;9.70;99.90
31991;DHT22;18508;49.386;8.370;2024-03-02T09:30:33;9.80;99.90
31991;DHT22;18508;49.386;8.370;2024-03-02T09:33:03;9.80;98.40
31991;DHT22;18508;49.386;8.370;2024-03-02T09:35:34;9.90;99.90
31991;DHT22;18508;49.386;8.370;2024-03-02T09:38:02;10.00;1.00
31991;DHT22;18508;49.386;8.370;2024-03-02T09:40:31;10.10;1.00
31991;DHT22;18508;49.386;8.370;2024-03-02T09:42:59;10.30;1.00
31991;DHT22;18508;49.386;8.370;2024-03-02T09:45:27;10.30;1.00
31991;DHT22;18508;49.386;8.370;2024-03-02T09:47:55;10.40;1.00
31991;DHT22;18508;49.386;8.370;2024-03-02T09:50:25;10.40;1.00
31991;DHT22;18508;49.386;8.370;2024-03-02T09:52:53;10.50;1.00
31991;DHT22;18508;49.386;8.370;2024-03-02T09:55:21;10.50;1.00
31991;DHT22;18508;49.386;8.370;2024-03-02T09:57:49;10.60;1.00
31991;DHT22;18508;49.386;8.370;2024-03-02T10:00:18;10.70;1.00
31991;DHT22;18508;49.386;8.370;2024-03-02T10:02:46;10.90;99.90
31991;DHT22;18508;49.386;8.370;2024-03-02T10:05:25;11.00;99.90
31991;DHT22;18508;49.386;8.370;2024-03-02T10:08:02;11.20;99.90
31991;DHT22;18508;49.386;8.370;2024-03-02T10:10:37;11.30;99.90
31991;DHT22;18508;49.386;8.370;2024-03-02T10:13:08;11.40;99.90
31991;DHT22;18508;49.386;8.370;2024-03-02T10:15:37;11.70;99.90
31991;DHT22;18508;49.386;8.370;2024-03-02T10:18:08;11.70;99.90
31991;DHT22;18508;49.386;8.370;2024-03-02T10:20:39;12.00;99.90
31991;DHT22;18508;49.386;8.370;2024-03-02T10:23:12;12.30;99.90
31991;DHT22;18508;49.386;8.370;2024-03-02T10:25:40;12.50;99.90
31991;DHT22;18508;49.386;8.370;2024-03-02T10:28:23;12.50;99.90
31991;DHT22;18508;49.386;8.370;2024-03-02T10:30:51;12.70;99.90
31991;DHT22;18508;49.386;8.370;2024-03-02T10:33:20;13.00;99.90
31991;DHT22;18508;49.386;8.370;2024-03-02T10:35:50;13.20;99.90
31991;DHT22;18508;49.386;8.370;2024-03-02T10:38:18;13.30;99.90
31991;DHT22;18508;49.386;8.370;2024-03-02T10:40:47;13.40;99.90
31991;DHT22;18508;49.386;8.370;2024-03-02T10:43:15;13.50;99.90
31991;DHT22;18508;49.386;8.370;2024-03-02T10:45:47;13.70;99.90
31991;DHT22;18508;49.386;8.370;2024-03-02T10:48:17;13.70;99.90
31991;DHT22;18508;49.386;8.370;2024-03-02T10:50:45;13.60;99.90
31991;DHT22;18508;49.386;8.370;2024-03-02T10:53:14;13.80;99.90
31991;DHT22;18508;49.386;8.370;2024-03-02T10:55:42;14.00;99.90
31991;DHT22;18508;49.386;8.370;2024-03-02T10:58:12;13.90;99.90
31991;DHT22;18508;49.386;8.370;2024-03-02T11:00:43;13.90;99.90
31991;DHT22;18508;49.386;8.370;2024-03-02T11:03:13;13.80;99.90
31991;DHT22;18508;49.386;8.370;2024-03-02T11:05:44;14.00;99.90
31991;DHT22;18508;49.386;8.370;2024-03-02T11:08:16;14.20;99.90
31991;DHT22;18508;49.386;8.370;2024-03-02T11:10:49;14.40;99.90
31991;DHT22;18508;49.386;8.370;2024-03-02T11:13:22;14.40;99.90
31991;DHT22;18508;49.386;8.370;2024-03-02T11:15:55;14.50;99.90
31991;DHT22;18508;49.386;8.370;2024-03-02T11:18:27;14.60;99.90
31991;DHT22;18508;49.386;8.370;2024-03-02T11:20:56;14.60;99.90
31991;DHT22;18508;49.386;8.370;2024-03-02T11:23:33;14.70;99.90
31991;DHT22;18508;49.386;8.370;2024-03-02T11:26:17;14.70;99.90
31991;DHT22;18508;49.386;8.370;2024-03-02T11:28:45;14.70;99.90
31991;DHT22;18508;49.386;8.370;2024-03-02T11:31:14;14.80;99.90
31991;DHT22;18508;49.386;8.370;2024-03-02T11:33:42;14.90;99.90
31991;DHT22;18508;49.386;8.370;2024-03-02T11:36:10;15.00;99.90
31991;DHT22;18508;49.386;8.370;2024-03-02T11:38:43;14.80;99.90
31991;DHT22;18508;49.386;8.370;2024-03-02T11:41:12;14.70;99.90
31991;DHT22;18508;49.386;8.370;2024-03-02T11:43:42;14.60;99.90
31991;DHT22;18508;49.386;8.370;2024-03-02T11:46:11;14.90;99.90
31991;DHT22;18508;49.386;8.370;2024-03-02T11:48:40;14.90;99.90
31991;DHT22;18508;49.386;8.370;2024-03-02T11:51:08;15.00;99.90
31991;DHT22;18508;49.386;8.370;2024-03-02T11:53:35;15.20;99.90
31991;DHT22;18508;49.386;8.370;2024-03-02T11:56:09;15.30;99.90
31991;DHT22;18508;49.386;8.370;2024-03-02T11:58:39;15.40;99.90
31991;DHT22;18508;49.386;8.370;2024-03-02T12:01:10;15.40;99.90
31991;DHT22;18508;49.386;8.370;2024-03-02T12:03:39;15.50;99.90
31991;DHT22;18508;49.386;8.370;2024-03-02T12:06:07;15.60;99.90
31991;DHT22;18508;49.386;8.370;2024-03-02T12:08:35;15.50;99.90
31991;DHT22;18508;49.386;8.370;2024-03-02T12:11:03;15.40;99.90
31991;DHT22;18508;49.386;8.370;2024-03-02T12:13:34;15.50;99.90
31991;DHT22;18508;49.386;8.370;2024-03-02T12:16:03;15.50;99.90
31991;DHT22;18508;49.386;8.370;2024-03-02T12:18:31;15.80;99.90
31991;DHT22;18508;49.386;8.370;2024-03-02T12:20:59;16.10;99.90
31991;DHT22;18508;49.386;8.370;2024-03-02T12:23:29;15.90;99.90
31991;DHT22;18508;49.386;8.370;2024-03-02T12:25:57;16.20;99.90
31991;DHT22;18508;49.386;8.370;2024-03-02T12:28:26;16.20;99.90
31991;DHT22;18508;49.386;8.370;2024-03-02T12:30:55;16.20;99.90
31991;DHT22;18508;49.386;8.370;2024-03-02T12:33:23;16.40;99.90
31991;DHT22;18508;49.386;8.370;2024-03-02T12:35:51;16.50;99.90
31991;DHT22;18508;49.386;8.370;2024-03-02T12:38:19;16.70;99.90
31991;DHT22;18508;49.386;8.370;2024-03-02T12:40:48;16.80;99.90
31991;DHT22;18508;49.386;8.370;2024-03-02T12:43:16;16.80;99.90
31991;DHT22;18508;49.386;8.370;2024-03-02T12:45:45;16.50;99.90
31991;DHT22;18508;49.386;8.370;2024-03-02T12:48:14;16.60;99.90
31991;DHT22;18508;49.386;8.370;2024-03-02T12:50:42;16.70;99.90
31991;DHT22;18508;49.386;8.370;2024-03-02T12:53:15;16.70;99.90
31991;DHT22;18508;49.386;8.370;2024-03-02T12:55:44;16.70;99.90
31991;DHT22;18508;49.386;8.370;2024-03-02T12:58:17;16.70;99.90
31991;DHT22;18508;49.386;8.370;2024-03-02T13:00:45;16.70;99.90
31991;DHT22;18508;49.386;8.370;2024-03-02T13:03:17;16.80;99.90
31991;DHT22;18508;49.386;8.370;2024-03-02T13:05:52;16.80;99.90
31991;DHT22;18508;49.386;8.370;2024-03-02T13:08:20;16.70;99.90
31991;DHT22;18508;49.386;8.370;2024-03-02T13:10:50;16.80;99.90
31991;DHT22;18508;49.386;8.370;2024-03-02T13:13:18;16.80;99.90
31991;DHT22;18508;49.386;8.370;2024-03-02T13:15:46;17.00;99.90
31991;DHT22;18508;49.386;8.370;2024-03-02T13:18:17;17.20;99.90
31991;DHT22;18508;49.386;8.370;2024-03-02T13:20:49;17.10;99.90
31991;DHT22;18508;49.386;8.370;2024-03-02T13:23:17;17.20;99.90
31991;DHT22;18508;49.386;8.370;2024-03-02T13:25:47;17.30;99.90
31991;DHT22;18508;49.386;8.370;2024-03-02T13:30:45;17.60;99.90
31991;DHT22;18508;49.386;8.370;2024-03-02T13:33:13;17.60;99.90
31991;DHT22;18508;49.386;8.370;2024-03-02T13:35:43;17.50;99.90
31991;DHT22;18508;49.386;8.370;2024-03-02T13:38:11;17.30;99.90
31991;DHT22;18508;49.386;8.370;2024-03-02T13:40:39;17.10;99.90
31991;DHT22;18508;49.386;8.370;2024-03-02T13:43:07;17.10;99.90
31991;DHT22;18508;49.386;8.370;2024-03-02T13:45:36;17.00;99.90
31991;DHT22;18508;49.386;8.370;2024-03-02T13:48:05;17.10;99.90
31991;DHT22;18508;49.386;8.370;2024-03-02T13:50:33;17.10;99.90
31991;DHT22;18508;49.386;8.370;2024-03-02T13:53:03;17.50;99.90
31991;DHT22;18508;49.386;8.370;2024-03-02T13:55:31;17.50;99.90
31991;DHT22;18508;49.386;8.370;2024-03-02T13:58:00;17.70;99.90
31991;DHT22;18508;49.386;8.370;2024-03-02T14:00:28;17.80;99.90
31991;DHT22;18508;49.386;8.370;2024-03-02T14:02:56;17.80;99.90
31991;DHT22;18508;49.386;8.370;2024-03-02T14:05:24;17.90;99.90
31991;DHT22;18508;49.386;8.370;2024-03-02T14:07:52;17.90;99.90
31991;DHT22;18508;49.386;8.370;2024-03-02T14:10:22;17.80;99.90
31991;DHT22;18508;49.386;8.370;2024-03-02T14:12:50;17.60;99.90
31991;DHT22;18508;49.386;8.370;2024-03-02T14:15:19;17.60;99.90
31991;DHT22;18508;49.386;8.370;2024-03-02T14:17:47;17.60;99.90
31991;DHT22;18508;49.386;8.370;2024-03-02T14:20:16;17.60;99.90
31991;DHT22;18508;49.386;8.370;2024-03-02T14:22:49;17.30;99.90
31991;DHT22;18508;49.386;8.370;2024-03-02T14:25:17;17.60;99.90
31991;DHT22;18508;49.386;8.370;2024-03-02T14:27:47;17.70;99.90
31991;DHT22;18508;49.386;8.370;2024-03-02T14:30:35;17.40;99.90
31991;DHT22;18508;49.386;8.370;2024-03-02T14:33:04;17.50;99.90
31991;DHT22;18508;49.386;8.370;2024-03-02T14:35:32;17.40;99.90
31991;DHT22;18508;49.386;8.370;2024-03-02T14:38:00;17.10;99.90
31991;DHT22;18508;49.386;8.370;2024-03-02T14:40:29;16.90;99.90
31991;DHT22;18508;49.386;8.370;2024-03-02T14:42:58;16.90;99.90
31991;DHT22;18508;49.386;8.370;2024-03-02T14:45:27;16.70;99.90
31991;DHT22;18508;49.386;8.370;2024-03-02T14:47:55;16.90;99.90
31991;DHT22;18508;49.386;8.370;2024-03-02T14:50:26;16.90;99.90
31991;DHT22;18508;49.386;8.370;2024-03-02T14:52:54;16.60;99.90
31991;DHT22;18508;49.386;8.370;2024-03-02T14:55:24;16.70;99.90
31991;DHT22;18508;49.386;8.370;2024-03-02T14:57:52;16.50;99.90
31991;DHT22;18508;49.386;8.370;2024-03-02T15:00:22;16.60;99.90
31991;DHT22;18508;49.386;8.370;2024-03-02T15:02:50;16.40;99.90
31991;DHT22;18508;49.386;8.370;2024-03-02T15:05:18;16.30;99.90
31991;DHT22;18508;49.386;8.370;2024-03-02T15:07:47;16.20;99.90
31991;DHT22;18508;49.386;8.370;2024-03-02T15:10:15;16.20;99.90
31991;DHT22;18508;49.386;8.370;2024-03-02T15:12:44;16.00;99.90
31991;DHT22;18508;49.386;8.370;2024-03-02T15:15:12;16.00;99.90
31991;DHT22;18508;49.386;8.370;2024-03-02T15:17:44;16.00;99.90
31991;DHT22;18508;49.386;8.370;2024-03-02T15:20:12;15.90;99.90
31991;DHT22;18508;49.386;8.370;2024-03-02T15:22:41;16.10;99.90
31991;DHT22;18508;49.386;8.370;2024-03-02T15:27:38;15.80;99.90
31991;DHT22;18508;49.386;8.370;2024-03-02T15:30:07;15.70;99.90
31991;DHT22;18508;49.386;8.370;2024-03-02T15:32:36;15.60;99.90
31991;DHT22;18508;49.386;8.370;2024-03-02T15:35:07;15.60;99.90
31991;DHT22;18508;49.386;8.370;2024-03-02T15:37:36;15.70;99.90
31991;DHT22;18508;49.386;8.370;2024-03-02T15:40:05;15.60;99.90
31991;DHT22;18508;49.386;8.370;2024-03-02T15:42:35;15.70;99.90
31991;DHT22;18508;49.386;8.370;2024-03-02T15:45:04;15.70;99.90
31991;DHT22;18508;49.386;8.370;2024-03-02T15:47:32;15.50;99.90
31991;DHT22;18508;49.386;8.370;2024-03-02T15:50:03;15.50;99.90
31991;DHT22;18508;49.386;8.370;2024-03-02T15:52:33;15.40;99.90
31991;DHT22;18508;49.386;8.370;2024-03-02T15:55:01;15.20;99.90
31991;DHT22;18508;49.386;8.370;2024-03-02T15:57:33;15.10;99.90